createdAt,value
2018-03-03T00:01:31.304Z,0.30
2018-03-03T00:03:58.916Z,0.30
2018-03-03T00:06:27.294Z,0.20
2018-03-03T00:08:55.635Z,0.20
2018-03-03T00:11:23.253Z,0.20
2018-03-03T00:13:50.847Z,0.20
2018-03-03T00:16:18.456Z,0.20
2018-03-03T00:18:46.811Z,0.30
2018-03-03T00:21:14.431Z,0.30
2018-03-03T00:23:42.019Z,0.30
2018-03-03T00:26:09.644Z,0.30
2018-03-03T00:28:37.230Z,0.30
2018-03-03T00:31:04.857Z,0.30
2018-03-03T00:33:32.468Z,0.30
2018-03-03T00:36:00.087Z,0.20
2018-03-03T00:38:27.681Z,0.30
2018-03-03T00:40:55.302Z,0.30
2018-03-03T00:43:23.692Z,0.40
2018-03-03T00:45:51.286Z,0.40
2018-03-03T00:48:18.916Z,0.40
2018-03-03T00:50:46.573Z,0.40
2018-03-03T00:53:14.176Z,0.40
2018-03-03T00:55:41.764Z,0.40
2018-03-03T00:58:10.156Z,0.40
2018-03-03T01:00:38.524Z,0.40
2018-03-03T01:03:06.137Z,0.40
2018-03-03T01:05:33.761Z,0.40
2018-03-03T01:08:02.116Z,0.40
2018-03-03T01:10:29.693Z,0.40
2018-03-03T01:12:58.090Z,0.40
2018-03-03T01:15:25.716Z,0.40
2018-03-03T01:17:53.333Z,0.30
2018-03-03T01:20:20.915Z,0.30
2018-03-03T01:22:48.559Z,0.20
2018-03-03T01:25:16.167Z,0.30
2018-03-03T01:27:43.742Z,0.30
2018-03-03T01:30:12.123Z,0.30
2018-03-03T01:32:40.487Z,0.30
2018-03-03T01:35:08.104Z,0.30
2018-03-03T01:37:35.685Z,0.30
2018-03-03T01:40:03.327Z,0.30
2018-03-03T01:42:30.908Z,0.20
2018-03-03T01:44:58.531Z,0.20
2018-03-03T01:47:26.107Z,0.10
2018-03-03T01:49:53.694Z,0.10
2018-03-03T01:52:21.324Z,0.10
2018-03-03T01:54:48.942Z,0.20
2018-03-03T01:57:16.532Z,0.10
2018-03-03T01:59:44.138Z,0.10
2018-03-03T02:02:11.768Z,0.20
2018-03-03T02:04:39.358Z,0.20
2018-03-03T02:07:07.002Z,0.30
2018-03-03T02:09:34.622Z,0.20
2018-03-03T02:12:10.282Z,0.20
2018-03-03T02:14:43.584Z,0.30
2018-03-03T02:17:12.807Z,0.30
2018-03-03T02:19:43.306Z,0.30
2018-03-03T02:22:13.605Z,0.30
2018-03-03T02:24:42.661Z,0.30
2018-03-03T02:27:11.940Z,0.30
2018-03-03T02:29:43.437Z,0.30
2018-03-03T02:32:14.971Z,0.10
2018-03-03T02:34:45.787Z,0.10
2018-03-03T02:37:15.537Z,0.20
2018-03-03T02:39:45.872Z,0.30
2018-03-03T02:42:16.262Z,0.30
2018-03-03T02:44:49.456Z,0.40
2018-03-03T02:47:23.785Z,0.40
2018-03-03T02:49:53.709Z,0.40
2018-03-03T02:52:24.633Z,0.50
2018-03-03T02:54:54.540Z,0.40
2018-03-03T02:57:24.225Z,0.40
2018-03-03T02:59:54.879Z,0.50
2018-03-03T03:02:27.225Z,0.50
2018-03-03T03:04:57.746Z,0.50
2018-03-03T03:07:28.376Z,0.50
2018-03-03T03:09:58.969Z,0.40
2018-03-03T03:12:28.603Z,0.40
2018-03-03T03:14:58.237Z,0.40
2018-03-03T03:17:29.000Z,0.40
2018-03-03T03:19:59.502Z,0.40
2018-03-03T03:22:30.155Z,0.30
2018-03-03T03:24:59.994Z,0.30
2018-03-03T03:27:30.650Z,0.30
2018-03-03T03:30:00.440Z,0.20
2018-03-03T03:32:30.102Z,0.20
2018-03-03T03:35:01.722Z,0.10
2018-03-03T03:37:31.452Z,0.10
2018-03-03T03:40:01.021Z,0.10
2018-03-03T03:42:30.897Z,0.10
2018-03-03T03:45:02.061Z,0.00
2018-03-03T03:47:31.689Z,0.00
2018-03-03T03:50:05.734Z,0.00
2018-03-03T03:52:36.415Z,0.00
2018-03-03T03:55:06.979Z,0.10
2018-03-03T03:57:36.539Z,0.00
2018-03-03T04:00:04.262Z,0.00
2018-03-03T04:02:31.804Z,-0.10
2018-03-03T04:04:59.385Z,-0.30
2018-03-03T04:07:27.010Z,-0.40
2018-03-03T04:09:54.604Z,-0.40
2018-03-03T04:12:22.254Z,-0.50
2018-03-03T04:14:49.834Z,-0.50
2018-03-03T04:17:17.410Z,-0.50
2018-03-03T04:19:45.819Z,-0.60
2018-03-03T04:22:13.413Z,-0.60
2018-03-03T04:24:40.990Z,-0.70
2018-03-03T04:27:08.615Z,-0.60
2018-03-03T04:29:36.244Z,-0.60
2018-03-03T04:32:04.633Z,-0.60
2018-03-03T04:34:32.985Z,-0.70
2018-03-03T04:37:00.618Z,-0.70
2018-03-03T04:39:28.207Z,-0.80
2018-03-03T04:41:55.838Z,-0.90
2018-03-03T04:44:23.434Z,-0.90
2018-03-03T04:46:51.066Z,-0.90
2018-03-03T04:49:18.643Z,-0.90
2018-03-03T04:51:46.282Z,-0.90
2018-03-03T04:54:13.897Z,-0.90
2018-03-03T04:56:42.274Z,-0.90
2018-03-03T04:59:16.427Z,-0.90
2018-03-03T05:01:47.276Z,-0.90
2018-03-03T05:04:14.923Z,-0.90
2018-03-03T05:06:57.422Z,-0.90
2018-03-03T05:09:25.014Z,-0.90
2018-03-03T05:11:52.603Z,-0.90
2018-03-03T05:14:21.128Z,-0.90
2018-03-03T05:16:54.429Z,-0.90
2018-03-03T05:19:36.963Z,-1.00
2018-03-03T05:22:10.084Z,-1.00
2018-03-03T05:24:43.401Z,-0.90
2018-03-03T05:27:29.454Z,-0.90
2018-03-03T05:30:02.608Z,-0.90
2018-03-03T05:32:35.856Z,-1.00
2018-03-03T05:35:04.214Z,-1.00
2018-03-03T05:37:37.574Z,-1.10
2018-03-03T05:40:10.716Z,-1.10
2018-03-03T05:42:42.122Z,-1.20
2018-03-03T05:45:30.645Z,-1.10
2018-03-03T05:48:04.550Z,-1.10
2018-03-03T05:50:38.485Z,-1.10
2018-03-03T05:53:21.917Z,-1.10
2018-03-03T05:55:55.172Z,-1.10
2018-03-03T05:58:28.459Z,-1.20
2018-03-03T06:01:01.695Z,-1.20
2018-03-03T06:03:47.043Z,-1.10
2018-03-03T06:06:29.514Z,-1.20
2018-03-03T06:09:07.083Z,-1.10
2018-03-03T06:11:34.674Z,-1.20
2018-03-03T06:14:02.330Z,-1.20
2018-03-03T06:16:29.908Z,-1.10
2018-03-03T06:18:57.527Z,-1.10
2018-03-03T06:21:25.104Z,-1.10
2018-03-03T06:23:52.713Z,-1.10
2018-03-03T06:26:21.084Z,-1.10
2018-03-03T06:28:48.700Z,-1.00
2018-03-03T06:31:16.283Z,-1.00
2018-03-03T06:33:43.902Z,-0.90
2018-03-03T06:36:11.498Z,-0.90
2018-03-03T06:38:39.108Z,-0.90
2018-03-03T06:41:06.687Z,-0.90
2018-03-03T06:43:34.311Z,-0.90
2018-03-03T06:46:01.931Z,-0.80
2018-03-03T06:48:29.526Z,-0.80
2018-03-03T06:50:57.162Z,-0.80
2018-03-03T06:53:24.772Z,-0.80
2018-03-03T06:55:53.174Z,-0.80
2018-03-03T06:58:20.789Z,-0.80
2018-03-03T07:00:48.392Z,-0.70
2018-03-03T07:03:16.777Z,-0.80
2018-03-03T07:05:44.362Z,-0.80
2018-03-03T07:08:12.005Z,-0.80
2018-03-03T07:10:39.640Z,-0.70
2018-03-03T07:13:08.006Z,-0.70
2018-03-03T07:15:35.602Z,-0.70
2018-03-03T07:18:03.284Z,-0.60
2018-03-03T07:20:30.882Z,-0.60
2018-03-03T07:22:58.498Z,-0.60
2018-03-03T07:25:26.077Z,-0.60
2018-03-03T07:27:53.719Z,-0.60
2018-03-03T07:30:21.322Z,-0.60
2018-03-03T07:32:48.966Z,-0.50
2018-03-03T07:35:16.751Z,-0.30
2018-03-03T07:37:44.380Z,-0.30
2018-03-03T07:40:11.963Z,-0.10
2018-03-03T07:42:39.567Z,0.00
2018-03-03T07:45:07.183Z,-0.10
2018-03-03T07:47:34.787Z,0.00
2018-03-03T07:50:04.675Z,0.20
2018-03-03T07:52:32.324Z,0.20
2018-03-03T07:54:59.904Z,0.30
2018-03-03T07:57:27.528Z,0.30
2018-03-03T07:59:55.140Z,0.50
2018-03-03T08:02:22.711Z,0.70
2018-03-03T08:04:51.106Z,1.10
2018-03-03T08:07:18.700Z,1.10
2018-03-03T08:09:46.320Z,1.10
2018-03-03T08:12:14.669Z,1.30
2018-03-03T08:14:42.283Z,1.30
2018-03-03T08:17:09.865Z,1.50
2018-03-03T08:19:37.494Z,1.60
2018-03-03T08:22:05.079Z,1.70
2018-03-03T08:24:32.720Z,1.90
2018-03-03T08:27:00.342Z,1.90
2018-03-03T08:29:27.924Z,2.00
2018-03-03T08:31:55.564Z,2.10
2018-03-03T08:34:23.210Z,2.10
2018-03-03T08:36:50.787Z,2.30
2018-03-03T08:39:18.416Z,2.60
2018-03-03T08:41:46.051Z,3.00
2018-03-03T08:44:13.671Z,3.30
2018-03-03T08:46:41.254Z,3.60
2018-03-03T08:49:09.646Z,3.70
2018-03-03T08:51:37.288Z,3.70
2018-03-03T08:54:04.901Z,4.10
2018-03-03T08:56:32.526Z,4.60
2018-03-03T08:59:00.887Z,5.20
2018-03-03T09:01:28.485Z,5.20
2018-03-03T09:03:56.129Z,5.50
2018-03-03T09:06:24.511Z,6.30
2018-03-03T09:08:52.086Z,6.30
2018-03-03T09:11:19.725Z,6.50
2018-03-03T09:13:48.079Z,6.60
2018-03-03T09:16:15.683Z,6.60
2018-03-03T09:18:43.304Z,6.60
2018-03-03T09:21:10.891Z,6.80
2018-03-03T09:23:39.296Z,7.90
2018-03-03T09:26:06.915Z,7.90
2018-03-03T09:28:34.590Z,7.60
2018-03-03T09:31:02.239Z,7.40
2018-03-03T09:33:29.842Z,7.70
2018-03-03T09:35:57.455Z,7.80
2018-03-03T09:38:25.073Z,8.50
2018-03-03T09:40:52.691Z,9.40
2018-03-03T09:43:21.079Z,9.60
2018-03-03T09:45:48.760Z,9.60
2018-03-03T09:48:16.383Z,9.20
2018-03-03T09:50:44.018Z,9.80
2018-03-03T09:53:11.636Z,11.20
2018-03-03T09:55:39.278Z,12.10
2018-03-03T09:58:07.703Z,13.30
2018-03-03T10:00:35.314Z,13.20
2018-03-03T10:03:02.944Z,13.30
2018-03-03T10:05:30.602Z,12.70
2018-03-03T10:07:58.190Z,12.30
2018-03-03T10:10:25.826Z,11.80
2018-03-03T10:12:53.479Z,11.40
2018-03-03T10:15:21.129Z,11.20
2018-03-03T10:17:48.731Z,11.10
2018-03-03T10:20:16.363Z,10.90
2018-03-03T10:22:43.958Z,10.20
2018-03-03T10:25:11.600Z,10.50
2018-03-03T10:27:39.211Z,10.80
2018-03-03T10:30:07.638Z,11.40
2018-03-03T10:32:36.030Z,11.90
2018-03-03T10:35:03.629Z,11.80
2018-03-03T10:37:32.022Z,13.30
2018-03-03T10:40:00.421Z,13.60
2018-03-03T10:42:28.036Z,13.50
2018-03-03T10:44:55.672Z,13.20
2018-03-03T10:47:23.296Z,13.30
2018-03-03T10:49:50.942Z,13.50
2018-03-03T10:52:19.288Z,13.60
2018-03-03T10:54:46.922Z,13.60
2018-03-03T10:57:14.578Z,14.30
2018-03-03T10:59:42.358Z,14.80
2018-03-03T11:02:10.032Z,15.40
2018-03-03T11:04:37.731Z,15.90
2018-03-03T11:07:06.108Z,16.30
2018-03-03T11:09:34.540Z,15.20
2018-03-03T11:12:02.177Z,15.20
2018-03-03T11:14:29.841Z,14.80
2018-03-03T11:16:57.543Z,13.80
2018-03-03T11:19:25.151Z,13.30
2018-03-03T11:21:52.841Z,12.90
2018-03-03T11:24:20.450Z,12.70
2018-03-03T11:26:48.034Z,12.70
2018-03-03T11:29:16.435Z,12.80
2018-03-03T11:31:44.089Z,12.80
2018-03-03T11:34:11.761Z,12.70
2018-03-03T11:36:39.373Z,12.70
2018-03-03T11:39:07.019Z,12.80
2018-03-03T11:41:34.692Z,13.10
2018-03-03T11:44:02.343Z,13.30
2018-03-03T11:46:29.972Z,13.30
2018-03-03T11:48:57.611Z,13.40
2018-03-03T11:51:25.217Z,13.80
2018-03-03T11:53:52.860Z,13.90
2018-03-03T11:56:20.479Z,14.20
2018-03-03T11:58:48.863Z,15.60
2018-03-03T12:01:17.279Z,16.40
2018-03-03T12:03:44.864Z,16.40
2018-03-03T12:06:12.503Z,17.30
2018-03-03T12:08:40.305Z,18.20
2018-03-03T12:11:07.933Z,19.60
2018-03-03T12:13:35.547Z,20.50
2018-03-03T12:16:03.200Z,20.80
2018-03-03T12:18:30.887Z,21.00
2018-03-03T12:20:59.281Z,21.90
2018-03-03T12:23:26.973Z,21.90
2018-03-03T12:25:55.329Z,22.20
2018-03-03T12:28:23.024Z,22.20
2018-03-03T12:30:50.828Z,22.30
2018-03-03T12:33:18.466Z,22.80
2018-03-03T12:35:46.125Z,22.80
2018-03-03T12:38:13.767Z,22.80
2018-03-03T12:40:41.425Z,23.20
2018-03-03T12:43:09.130Z,23.40
2018-03-03T12:45:36.808Z,23.40
2018-03-03T12:48:05.232Z,23.20
2018-03-03T12:50:32.822Z,23.10
2018-03-03T12:53:00.447Z,22.60
2018-03-03T12:55:28.060Z,22.80
2018-03-03T12:57:56.966Z,22.90
2018-03-03T13:00:24.561Z,22.90
2018-03-03T13:02:52.364Z,22.70
2018-03-03T13:05:20.056Z,22.80
2018-03-03T13:07:47.768Z,22.50
2018-03-03T13:10:15.459Z,21.90
2018-03-03T13:12:43.079Z,21.10
2018-03-03T13:15:10.730Z,20.60
2018-03-03T13:17:38.382Z,20.00
2018-03-03T13:20:06.831Z,19.30
2018-03-03T13:22:34.478Z,19.30
2018-03-03T13:25:02.088Z,19.40
2018-03-03T13:27:29.765Z,19.40
2018-03-03T13:29:57.382Z,18.80
2018-03-03T13:32:25.021Z,18.20
2018-03-03T13:34:52.619Z,17.50
2018-03-03T13:37:21.041Z,16.70
2018-03-03T13:39:48.670Z,16.60
2018-03-03T13:42:17.098Z,16.20
2018-03-03T13:44:44.719Z,16.20
2018-03-03T13:47:13.127Z,15.90
2018-03-03T13:49:40.750Z,15.80
2018-03-03T13:52:09.273Z,15.80
2018-03-03T13:54:36.906Z,15.70
2018-03-03T13:57:05.286Z,15.60
2018-03-03T13:59:32.930Z,15.60
2018-03-03T14:02:00.612Z,15.80
2018-03-03T14:04:28.396Z,15.90
2018-03-03T14:06:56.069Z,15.90
2018-03-03T14:09:23.727Z,15.80
2018-03-03T14:11:51.366Z,15.80
2018-03-03T14:14:19.783Z,15.40
2018-03-03T14:16:47.386Z,15.40
2018-03-03T14:19:15.043Z,15.10
2018-03-03T14:21:42.676Z,15.00
2018-03-03T14:24:10.333Z,15.20
2018-03-03T14:26:37.941Z,15.40
2018-03-03T14:29:06.318Z,15.10
2018-03-03T14:31:33.974Z,15.10
2018-03-03T14:34:01.581Z,15.10
2018-03-03T14:36:29.170Z,15.10
2018-03-03T14:38:56.803Z,15.20
2018-03-03T14:41:25.189Z,14.40
2018-03-03T14:43:53.358Z,14.40
2018-03-03T14:46:20.944Z,14.20
2018-03-03T14:48:48.520Z,14.20
2018-03-03T14:51:16.138Z,14.20
2018-03-03T14:53:43.757Z,13.80
2018-03-03T14:56:11.391Z,13.60
2018-03-03T14:58:39.038Z,13.30
2018-03-03T15:01:06.607Z,13.20
2018-03-03T15:03:34.195Z,13.20
2018-03-03T15:06:01.825Z,13.20
2018-03-03T15:08:29.451Z,13.20
2018-03-03T15:10:57.809Z,13.00
2018-03-03T15:13:25.493Z,13.00
2018-03-03T15:15:53.948Z,12.60
2018-03-03T15:18:21.506Z,12.50
2018-03-03T15:20:49.146Z,12.40
2018-03-03T15:23:16.758Z,12.30
2018-03-03T15:25:44.388Z,12.10
2018-03-03T15:28:11.996Z,11.50
2018-03-03T15:30:39.639Z,11.10
2018-03-03T15:33:07.247Z,10.80
2018-03-03T15:35:34.846Z,10.60
2018-03-03T15:38:03.272Z,10.40
2018-03-03T15:40:30.858Z,10.40
2018-03-03T15:42:58.551Z,10.20
2018-03-03T15:45:26.142Z,10.10
2018-03-03T15:47:53.769Z,9.90
2018-03-03T15:50:21.346Z,9.80
2018-03-03T15:52:49.747Z,9.80
2018-03-03T15:55:17.371Z,9.80
2018-03-03T15:57:44.994Z,9.70
2018-03-03T16:00:12.628Z,9.60
2018-03-03T16:02:40.222Z,9.40
2018-03-03T16:05:07.863Z,9.30
2018-03-03T16:07:35.446Z,9.30
2018-03-03T16:10:03.057Z,9.00
2018-03-03T16:12:31.410Z,9.00
2018-03-03T16:14:59.050Z,9.00
2018-03-03T16:17:26.647Z,9.00
2018-03-03T16:19:55.044Z,8.80
2018-03-03T16:22:23.395Z,8.70
2018-03-03T16:24:51.039Z,8.70
2018-03-03T16:27:18.667Z,8.50
2018-03-03T16:29:46.273Z,8.50
2018-03-03T16:32:13.886Z,8.50
2018-03-03T16:34:41.468Z,8.40
2018-03-03T16:37:09.076Z,8.30
2018-03-03T16:39:36.710Z,8.20
2018-03-03T16:42:04.318Z,8.20
2018-03-03T16:44:32.663Z,8.10
2018-03-03T16:47:00.282Z,8.10
2018-03-03T16:49:27.913Z,8.10
2018-03-03T16:51:56.315Z,8.10
2018-03-03T16:54:23.901Z,8.10
2018-03-03T16:56:51.527Z,8.00
2018-03-03T16:59:19.859Z,8.00
2018-03-03T17:01:47.508Z,8.00
2018-03-03T17:04:15.097Z,7.90
2018-03-03T17:06:42.711Z,7.90
2018-03-03T17:09:11.101Z,7.90
2018-03-03T17:11:38.690Z,7.80
2018-03-03T17:14:06.487Z,7.80
2018-03-03T17:16:34.119Z,7.80
2018-03-03T17:19:01.744Z,7.70
2018-03-03T17:21:29.318Z,7.60
2018-03-03T17:23:56.943Z,7.60
2018-03-03T17:26:25.293Z,7.20
2018-03-03T17:28:52.919Z,7.20
2018-03-03T17:31:20.571Z,7.20
2018-03-03T17:33:48.190Z,7.20
2018-03-03T17:36:16.608Z,7.10
2018-03-03T17:38:44.230Z,7.10
2018-03-03T17:41:11.856Z,6.90
2018-03-03T17:43:39.430Z,6.50
2018-03-03T17:46:07.020Z,6.40
2018-03-03T17:48:34.644Z,6.50
2018-03-03T17:51:02.304Z,6.70
2018-03-03T17:53:29.893Z,6.70
2018-03-03T17:55:57.471Z,6.70
2018-03-03T17:58:25.869Z,6.60
2018-03-03T18:00:53.482Z,6.60
2018-03-03T18:03:21.122Z,6.60
2018-03-03T18:05:48.739Z,6.70
2018-03-03T18:08:17.117Z,6.60
2018-03-03T18:10:45.507Z,6.50
2018-03-03T18:13:17.926Z,6.50
2018-03-03T18:15:45.520Z,6.50
2018-03-03T18:18:13.962Z,6.40
2018-03-03T18:20:41.561Z,6.40
2018-03-03T18:23:09.959Z,6.30
2018-03-03T18:25:38.306Z,6.20
2018-03-03T18:28:05.951Z,6.20
2018-03-03T18:30:33.546Z,6.30
2018-03-03T18:33:01.934Z,6.10
2018-03-03T18:35:30.277Z,5.80
2018-03-03T18:37:57.907Z,5.80
2018-03-03T18:40:25.505Z,5.70
2018-03-03T18:42:53.090Z,5.70
2018-03-03T18:45:20.723Z,5.60
2018-03-03T18:47:48.353Z,5.50
2018-03-03T18:50:15.980Z,5.50
2018-03-03T18:52:44.391Z,4.90
2018-03-03T18:55:12.006Z,4.90
2018-03-03T18:57:39.624Z,4.60
2018-03-03T19:00:07.216Z,4.60
2018-03-03T19:02:34.860Z,4.80
2018-03-03T19:05:02.448Z,4.80
2018-03-03T19:07:30.038Z,4.80
2018-03-03T19:09:58.428Z,4.80
2018-03-03T19:12:26.020Z,4.80
2018-03-03T19:14:53.638Z,4.80
2018-03-03T19:17:21.211Z,4.80
2018-03-03T19:19:48.848Z,4.70
2018-03-03T19:22:16.464Z,4.70
2018-03-03T19:24:44.100Z,4.70
2018-03-03T19:27:11.683Z,4.60
2018-03-03T19:29:39.300Z,4.40
2018-03-03T19:32:07.690Z,4.50
2018-03-03T19:34:35.323Z,4.50
2018-03-03T19:37:02.900Z,4.60
2018-03-03T19:39:30.541Z,4.70
2018-03-03T19:41:58.960Z,4.70
2018-03-03T19:44:26.559Z,4.60
2018-03-03T19:46:54.128Z,4.70
2018-03-03T19:49:21.749Z,4.60
2018-03-03T19:51:49.334Z,4.60
2018-03-03T19:54:16.946Z,4.60
2018-03-03T19:56:45.343Z,4.70
2018-03-03T19:59:12.996Z,4.60
2018-03-03T20:01:40.599Z,4.70
2018-03-03T20:04:08.208Z,4.60
2018-03-03T20:06:35.824Z,4.50
2018-03-03T20:09:03.448Z,4.50
2018-03-03T20:11:31.059Z,4.60
2018-03-03T20:13:58.676Z,4.60
2018-03-03T20:16:26.254Z,4.50
2018-03-03T20:18:53.951Z,4.50
2018-03-03T20:21:21.528Z,4.50
2018-03-03T20:23:49.154Z,4.70
2018-03-03T20:26:16.723Z,4.60
2018-03-03T20:28:44.343Z,4.60
2018-03-03T20:31:11.968Z,4.50
2018-03-03T20:33:39.579Z,4.50
2018-03-03T20:36:07.168Z,4.50
2018-03-03T20:38:34.797Z,4.50
2018-03-03T20:41:02.368Z,4.50
2018-03-03T20:43:30.010Z,4.50
2018-03-03T20:45:58.370Z,4.40
2018-03-03T20:48:26.787Z,4.40
2018-03-03T20:50:55.170Z,4.50
2018-03-03T20:53:22.776Z,4.50
2018-03-03T20:55:50.422Z,4.40
2018-03-03T20:58:18.007Z,4.40
2018-03-03T21:00:46.423Z,4.20
2018-03-03T21:03:16.971Z,4.20
2018-03-03T21:05:44.612Z,4.20
2018-03-03T21:08:12.241Z,4.10
2018-03-03T21:10:39.826Z,4.20
2018-03-03T21:13:08.183Z,4.20
2018-03-03T21:15:35.794Z,4.20
2018-03-03T21:18:03.389Z,4.20
2018-03-03T21:20:31.030Z,4.30
2018-03-03T21:22:58.612Z,4.30
2018-03-03T21:25:26.196Z,4.20
2018-03-03T21:27:53.834Z,4.30
2018-03-03T21:30:21.451Z,4.30
2018-03-03T21:32:49.078Z,4.30
2018-03-03T21:35:17.524Z,4.30
2018-03-03T21:37:45.130Z,4.30
2018-03-03T21:40:13.507Z,4.30
2018-03-03T21:42:41.901Z,4.30
2018-03-03T21:45:09.486Z,4.30
2018-03-03T21:47:37.093Z,4.30
2018-03-03T21:50:04.729Z,4.30
2018-03-03T21:52:32.360Z,4.20
2018-03-03T21:54:59.980Z,4.20
2018-03-03T21:57:27.619Z,4.20
2018-03-03T21:59:55.204Z,4.30
2018-03-03T22:02:22.782Z,4.30
2018-03-03T22:04:51.257Z,4.30
2018-03-03T22:07:18.848Z,4.30
2018-03-03T22:09:46.440Z,4.20
2018-03-03T22:12:14.059Z,4.20
2018-03-03T22:14:41.642Z,4.20
2018-03-03T22:17:09.239Z,4.20
2018-03-03T22:19:36.850Z,4.20
2018-03-03T22:22:04.811Z,4.20
2018-03-03T22:24:32.454Z,4.20
2018-03-03T22:27:00.830Z,4.10
2018-03-03T22:29:28.485Z,4.10
2018-03-03T22:31:56.059Z,4.10
2018-03-03T22:34:24.420Z,4.20
2018-03-03T22:36:52.048Z,4.20
2018-03-03T22:39:24.526Z,4.20
2018-03-03T22:41:52.106Z,4.20
2018-03-03T22:44:19.709Z,4.10
2018-03-03T22:46:47.285Z,4.10
2018-03-03T22:49:14.918Z,4.10
2018-03-03T22:51:45.959Z,4.00
2018-03-03T22:54:14.363Z,4.00
2018-03-03T22:56:41.951Z,4.00
2018-03-03T22:59:09.566Z,4.00
2018-03-03T23:01:37.921Z,4.00
2018-03-03T23:04:05.543Z,3.90
2018-03-03T23:06:33.174Z,3.90
2018-03-03T23:09:01.522Z,4.00
2018-03-03T23:11:29.143Z,3.90
2018-03-03T23:13:56.781Z,4.00
2018-03-03T23:16:25.133Z,4.00
2018-03-03T23:18:52.756Z,3.90
2018-03-03T23:21:20.357Z,4.00
2018-03-03T23:23:47.971Z,3.90
2018-03-03T23:26:15.575Z,3.90
2018-03-03T23:28:43.190Z,3.90
2018-03-03T23:31:11.532Z,4.00
2018-03-03T23:33:39.910Z,3.90
2018-03-03T23:36:07.492Z,3.90
2018-03-03T23:38:35.866Z,3.90
2018-03-03T23:41:04.280Z,3.90
2018-03-03T23:43:31.902Z,3.90
2018-03-03T23:46:00.247Z,4.00
2018-03-03T23:48:27.827Z,4.00
2018-03-03T23:50:56.234Z,4.10
2018-03-03T23:53:23.863Z,4.00
2018-03-03T23:55:51.482Z,4.00
2018-03-03T23:58:19.058Z,3.90
